sensor_id;sensor_type;location;lat;lon;timestamp;pressure;altitude;pressure_sealevel;temperature;humidity
74778;BME280;63298;53.164;8.610;2023-08-20T00:00:48;102203.63;;;21.28;70.36
74778;BME280;63298;53.164;8.610;2023-08-20T00:03:14;102199.72;;;21.29;70.16
74778;BME280;63298;53.164;8.610;2023-08-20T00:05:40;102196.31;;;21.27;70.32
74778;BME280;63298;53.164;8.610;2023-08-20T00:08:06;102201.09;;;21.21;70.42
74778;BME280;63298;53.164;8.610;2023-08-20T00:10:31;102199.38;;;21.15;70.48
74778;BME280;63298;53.164;8.610;2023-08-20T00:12:57;102193.72;;;21.10;70.54
74778;BME280;63298;53.164;8.610;2023-08-20T00:15:23;102177.94;;;20.99;70.67
74778;BME280;63298;53.164;8.610;2023-08-20T00:17:48;102193.69;;;21.05;70.57
74778;BME280;63298;53.164;8.610;2023-08-20T00:20:14;102199.56;;;21.03;70.69
74778;BME280;63298;53.164;8.610;2023-08-20T00:22:40;102190.03;;;20.99;70.57
74778;BME280;63298;53.164;8.610;2023-08-20T00:25:07;102194.50;;;20.95;70.72
74778;BME280;63298;53.164;8.610;2023-08-20T00:27:32;102197.00;;;20.97;70.59
74778;BME280;63298;53.164;8.610;2023-08-20T00:29:58;102193.38;;;20.91;70.31
74778;BME280;63298;53.164;8.610;2023-08-20T00:32:23;102203.19;;;20.94;70.27
74778;BME280;63298;53.164;8.610;2023-08-20T00:34:49;102205.44;;;20.92;70.55
74778;BME280;63298;53.164;8.610;2023-08-20T00:37:14;102203.41;;;20.87;70.45
74778;BME280;63298;53.164;8.610;2023-08-20T00:39:39;102205.09;;;20.83;70.48
74778;BME280;63298;53.164;8.610;2023-08-20T00:42:05;102198.56;;;20.73;70.70
74778;BME280;63298;53.164;8.610;2023-08-20T00:44:31;102197.75;;;20.72;70.76
74778;BME280;63298;53.164;8.610;2023-08-20T00:46:56;102195.19;;;20.65;70.97
74778;BME280;63298;53.164;8.610;2023-08-20T00:49:22;102194.38;;;20.70;70.74
74778;BME280;63298;53.164;8.610;2023-08-20T00:51:48;102201.34;;;20.67;70.99
74778;BME280;63298;53.164;8.610;2023-08-20T00:54:14;102197.94;;;20.60;70.72
74778;BME280;63298;53.164;8.610;2023-08-20T00:56:40;102201.88;;;20.59;70.78
74778;BME280;63298;53.164;8.610;2023-08-20T00:59:05;102200.16;;;20.58;70.79
74778;BME280;63298;53.164;8.610;2023-08-20T01:01:32;102203.31;;;20.62;70.85
74778;BME280;63298;53.164;8.610;2023-08-20T01:03:58;102203.34;;;20.67;70.60
74778;BME280;63298;53.164;8.610;2023-08-20T01:09:20;102207.47;;;20.59;70.88
74778;BME280;63298;53.164;8.610;2023-08-20T01:11:54;102206.34;;;20.55;70.85
74778;BME280;63298;53.164;8.610;2023-08-20T01:14:20;102203.53;;;20.55;70.90
74778;BME280;63298;53.164;8.610;2023-08-20T01:16:45;102199.59;;;20.51;70.84
74778;BME280;63298;53.164;8.610;2023-08-20T01:19:17;102204.84;;;20.48;71.21
74778;BME280;63298;53.164;8.610;2023-08-20T01:25:03;102207.06;;;20.41;70.94
74778;BME280;63298;53.164;8.610;2023-08-20T01:30:32;102210.88;;;20.30;71.35
74778;BME280;63298;53.164;8.610;2023-08-20T01:32:58;102208.63;;;20.26;71.44
74778;BME280;63298;53.164;8.610;2023-08-20T01:35:24;102201.53;;;20.19;71.32
74778;BME280;63298;53.164;8.610;2023-08-20T01:37:50;102208.84;;;20.20;71.36
74778;BME280;63298;53.164;8.610;2023-08-20T01:40:15;102204.63;;;20.17;71.36
74778;BME280;63298;53.164;8.610;2023-08-20T01:42:40;102210.75;;;20.14;71.52
74778;BME280;63298;53.164;8.610;2023-08-20T01:45:06;102206.84;;;20.15;71.74
74778;BME280;63298;53.164;8.610;2023-08-20T01:47:33;102213.28;;;20.16;71.40
74778;BME280;63298;53.164;8.610;2023-08-20T01:49:59;102212.19;;;20.17;71.37
74778;BME280;63298;53.164;8.610;2023-08-20T01:52:25;102217.19;;;20.15;71.64
74778;BME280;63298;53.164;8.610;2023-08-20T01:54:50;102228.72;;;20.18;71.38
74778;BME280;63298;53.164;8.610;2023-08-20T01:57:17;102229.56;;;20.19;71.56
74778;BME280;63298;53.164;8.610;2023-08-20T01:59:42;102218.03;;;20.15;71.59
74778;BME280;63298;53.164;8.610;2023-08-20T02:02:08;102221.41;;;20.12;71.55
74778;BME280;63298;53.164;8.610;2023-08-20T02:04:33;102225.59;;;20.15;71.45
74778;BME280;63298;53.164;8.610;2023-08-20T02:06:59;102227.56;;;20.14;71.48
74778;BME280;63298;53.164;8.610;2023-08-20T02:09:25;102221.66;;;20.11;71.33
74778;BME280;63298;53.164;8.610;2023-08-20T02:11:51;102220.50;;;20.07;71.54
74778;BME280;63298;53.164;8.610;2023-08-20T02:14:16;102223.50;;;20.00;71.91
74778;BME280;63298;53.164;8.610;2023-08-20T02:16:42;102221.25;;;19.97;71.93
74778;BME280;63298;53.164;8.610;2023-08-20T02:19:07;102221.25;;;19.97;71.91
74778;BME280;63298;53.164;8.610;2023-08-20T02:21:33;102213.38;;;19.94;71.90
74778;BME280;63298;53.164;8.610;2023-08-20T02:23:58;102227.72;;;19.98;71.76
74778;BME280;63298;53.164;8.610;2023-08-20T02:26:23;102230.75;;;19.96;71.74
74778;BME280;63298;53.164;8.610;2023-08-20T02:28:49;102222.31;;;19.91;71.60
74778;BME280;63298;53.164;8.610;2023-08-20T02:31:14;102225.66;;;19.88;71.71
74778;BME280;63298;53.164;8.610;2023-08-20T02:33:39;102222.22;;;19.81;71.78
74778;BME280;63298;53.164;8.610;2023-08-20T02:36:05;102226.13;;;19.80;71.72
74778;BME280;63298;53.164;8.610;2023-08-20T02:38:30;102224.72;;;19.77;71.79
74778;BME280;63298;53.164;8.610;2023-08-20T02:40:56;102229.13;;;19.73;71.74
74778;BME280;63298;53.164;8.610;2023-08-20T02:43:22;102232.78;;;19.74;71.74
74778;BME280;63298;53.164;8.610;2023-08-20T02:45:48;102240.31;;;19.73;71.78
74778;BME280;63298;53.164;8.610;2023-08-20T02:48:14;102233.56;;;19.69;72.02
74778;BME280;63298;53.164;8.610;2023-08-20T02:50:40;102234.97;;;19.67;71.67
74778;BME280;63298;53.164;8.610;2023-08-20T02:53:06;102235.50;;;19.69;71.76
74778;BME280;63298;53.164;8.610;2023-08-20T02:55:32;102239.97;;;19.65;71.91
74778;BME280;63298;53.164;8.610;2023-08-20T02:57:58;102240.50;;;19.62;71.81
74778;BME280;63298;53.164;8.610;2023-08-20T03:00:24;102241.00;;;19.59;72.05
74778;BME280;63298;53.164;8.610;2023-08-20T03:02:50;102243.50;;;19.55;71.83
74778;BME280;63298;53.164;8.610;2023-08-20T03:05:15;102241.78;;;19.54;71.87
74778;BME280;63298;53.164;8.610;2023-08-20T03:07:41;102247.69;;;19.53;72.11
74778;BME280;63298;53.164;8.610;2023-08-20T03:10:06;102227.19;;;19.47;71.94
74778;BME280;63298;53.164;8.610;2023-08-20T03:12:32;102233.09;;;19.51;71.92
74778;BME280;63298;53.164;8.610;2023-08-20T03:14:59;102227.69;;;19.44;72.01
74778;BME280;63298;53.164;8.610;2023-08-20T03:17:24;102230.72;;;19.42;71.93
74778;BME280;63298;53.164;8.610;2023-08-20T03:19:56;102235.72;;;19.40;71.90
74778;BME280;63298;53.164;8.610;2023-08-20T03:22:23;102236.84;;;19.39;72.10
74778;BME280;63298;53.164;8.610;2023-08-20T03:24:48;102242.44;;;19.39;71.92
74778;BME280;63298;53.164;8.610;2023-08-20T03:27:14;102247.53;;;19.42;72.26
74778;BME280;63298;53.164;8.610;2023-08-20T03:29:39;102255.06;;;19.42;72.01
74778;BME280;63298;53.164;8.610;2023-08-20T03:32:05;102257.03;;;19.41;71.80
74778;BME280;63298;53.164;8.610;2023-08-20T03:34:30;102251.97;;;19.38;71.92
74778;BME280;63298;53.164;8.610;2023-08-20T03:36:56;102254.75;;;19.38;72.04
74778;BME280;63298;53.164;8.610;2023-08-20T03:39:21;102256.13;;;19.36;72.13
74778;BME280;63298;53.164;8.610;2023-08-20T03:41:46;102244.78;;;19.26;72.05
74778;BME280;63298;53.164;8.610;2023-08-20T03:44:12;102255.13;;;19.25;71.94
74778;BME280;63298;53.164;8.610;2023-08-20T03:46:37;102264.06;;;19.22;72.04
74778;BME280;63298;53.164;8.610;2023-08-20T03:49:02;102261.44;;;19.16;72.50
74778;BME280;63298;53.164;8.610;2023-08-20T03:51:28;102271.84;;;19.20;72.23
74778;BME280;63298;53.164;8.610;2023-08-20T03:53:53;102269.66;;;19.22;72.16
74778;BME280;63298;53.164;8.610;2023-08-20T03:56:19;102270.16;;;19.19;72.15
74778;BME280;63298;53.164;8.610;2023-08-20T03:58:45;102278.31;;;19.21;71.98
74778;BME280;63298;53.164;8.610;2023-08-20T04:01:10;102280.78;;;19.17;72.15
74778;BME280;63298;53.164;8.610;2023-08-20T04:03:36;102280.19;;;19.15;72.41
74778;BME280;63298;53.164;8.610;2023-08-20T04:06:01;102277.06;;;19.12;71.98
74778;BME280;63298;53.164;8.610;2023-08-20T04:08:26;102276.75;;;19.08;72.20
74778;BME280;63298;53.164;8.610;2023-08-20T04:10:52;102275.66;;;19.09;72.36
74778;BME280;63298;53.164;8.610;2023-08-20T04:13:17;102271.31;;;19.02;72.25
74778;BME280;63298;53.164;8.610;2023-08-20T04:15:43;102280.31;;;19.04;72.26
74778;BME280;63298;53.164;8.610;2023-08-20T04:18:08;102270.72;;;18.99;72.27
74778;BME280;63298;53.164;8.610;2023-08-20T04:20:33;102261.09;;;18.90;72.44
74778;BME280;63298;53.164;8.610;2023-08-20T04:22:59;102273.72;;;18.93;72.75
74778;BME280;63298;53.164;8.610;2023-08-20T04:25:24;102262.47;;;18.88;72.36
74778;BME280;63298;53.164;8.610;2023-08-20T04:27:49;102255.25;;;18.92;72.67
74778;BME280;63298;53.164;8.610;2023-08-20T04:30:15;102243.47;;;18.90;72.66
74778;BME280;63298;53.164;8.610;2023-08-20T04:32:43;102246.59;;;18.93;72.44
74778;BME280;63298;53.164;8.610;2023-08-20T04:35:08;102230.94;;;18.92;72.45
74778;BME280;63298;53.164;8.610;2023-08-20T04:37:34;102230.06;;;18.92;72.70
74778;BME280;63298;53.164;8.610;2023-08-20T04:39:59;102225.25;;;18.87;72.49
74778;BME280;63298;53.164;8.610;2023-08-20T04:42:24;102232.28;;;18.90;72.94
74778;BME280;63298;53.164;8.610;2023-08-20T04:44:50;102232.28;;;18.90;72.97
74778;BME280;63298;53.164;8.610;2023-08-20T04:47:15;102246.00;;;18.91;72.92
74778;BME280;63298;53.164;8.610;2023-08-20T04:49:40;102251.28;;;18.88;73.15
74778;BME280;63298;53.164;8.610;2023-08-20T04:52:06;102253.47;;;18.86;73.28
74778;BME280;63298;53.164;8.610;2023-08-20T04:54:31;102256.09;;;18.92;73.29
74778;BME280;63298;53.164;8.610;2023-08-20T04:56:56;102270.66;;;18.94;73.39
74778;BME280;63298;53.164;8.610;2023-08-20T04:59:22;102273.81;;;18.98;73.23
74778;BME280;63298;53.164;8.610;2023-08-20T05:01:47;102281.66;;;19.01;73.17
74778;BME280;63298;53.164;8.610;2023-08-20T05:04:12;102276.06;;;19.01;73.66
74778;BME280;63298;53.164;8.610;2023-08-20T05:06:38;102276.06;;;19.01;73.75
74778;BME280;63298;53.164;8.610;2023-08-20T05:09:03;102281.50;;;19.08;73.14
74778;BME280;63298;53.164;8.610;2023-08-20T05:11:28;102287.66;;;19.10;73.49
74778;BME280;63298;53.164;8.610;2023-08-20T05:13:55;102275.38;;;19.11;73.42
74778;BME280;63298;53.164;8.610;2023-08-20T05:16:20;102279.25;;;19.10;73.14
74778;BME280;63298;53.164;8.610;2023-08-20T05:18:45;102284.34;;;19.13;73.32
74778;BME280;63298;53.164;8.610;2023-08-20T05:21:11;102293.25;;;19.10;73.72
74778;BME280;63298;53.164;8.610;2023-08-20T05:23:36;102298.34;;;19.13;73.64
74778;BME280;63298;53.164;8.610;2023-08-20T05:26:01;102306.22;;;19.16;73.55
74778;BME280;63298;53.164;8.610;2023-08-20T05:28:27;102305.38;;;19.15;73.68
74778;BME280;63298;53.164;8.610;2023-08-20T05:30:56;102305.13;;;19.17;73.84
74778;BME280;63298;53.164;8.610;2023-08-20T05:33:22;102305.13;;;19.17;73.83
74778;BME280;63298;53.164;8.610;2023-08-20T05:35:47;102313.06;;;19.25;73.79
74778;BME280;63298;53.164;8.610;2023-08-20T05:38:13;102316.75;;;19.30;73.90
74778;BME280;63298;53.164;8.610;2023-08-20T05:40:38;102310.66;;;19.33;73.47
74778;BME280;63298;53.164;8.610;2023-08-20T05:43:03;102314.34;;;19.39;74.03
74778;BME280;63298;53.164;8.610;2023-08-20T05:45:29;102309.09;;;19.42;73.69
74778;BME280;63298;53.164;8.610;2023-08-20T05:47:54;102313.09;;;19.47;73.64
74778;BME280;63298;53.164;8.610;2023-08-20T05:50:19;102318.16;;;19.50;73.59
74778;BME280;63298;53.164;8.610;2023-08-20T05:52:44;102308.09;;;19.49;73.76
74778;BME280;63298;53.164;8.610;2023-08-20T05:55:10;102321.31;;;19.53;73.96
74778;BME280;63298;53.164;8.610;2023-08-20T05:57:36;102325.53;;;19.56;73.98
74778;BME280;63298;53.164;8.610;2023-08-20T06:00:01;102309.59;;;19.56;73.96
74778;BME280;63298;53.164;8.610;2023-08-20T06:02:26;102305.75;;;19.62;73.73
74778;BME280;63298;53.164;8.610;2023-08-20T06:04:52;102302.16;;;19.67;73.83
74778;BME280;63298;53.164;8.610;2023-08-20T06:07:17;102302.72;;;19.69;73.91
74778;BME280;63298;53.164;8.610;2023-08-20T06:09:42;102297.97;;;19.69;74.12
74778;BME280;63298;53.164;8.610;2023-08-20T06:12:08;102298.81;;;19.70;73.82
74778;BME280;63298;53.164;8.610;2023-08-20T06:14:33;102299.41;;;19.72;74.17
74778;BME280;63298;53.164;8.610;2023-08-20T06:16:58;102303.38;;;19.76;74.12
74778;BME280;63298;53.164;8.610;2023-08-20T06:19:24;102304.53;;;19.80;74.13
74778;BME280;63298;53.164;8.610;2023-08-20T06:21:49;102313.00;;;19.85;74.05
74778;BME280;63298;53.164;8.610;2023-08-20T06:24:17;102313.31;;;19.89;74.10
74778;BME280;63298;53.164;8.610;2023-08-20T06:26:42;102302.97;;;19.89;73.93
74778;BME280;63298;53.164;8.610;2023-08-20T06:29:07;102313.44;;;19.99;73.95
74778;BME280;63298;53.164;8.610;2023-08-20T06:31:33;102314.31;;;20.04;74.13
74778;BME280;63298;53.164;8.610;2023-08-20T06:33:58;102311.53;;;20.04;73.91
74778;BME280;63298;53.164;8.610;2023-08-20T06:36:23;102312.13;;;20.06;73.54
74778;BME280;63298;53.164;8.610;2023-08-20T06:38:49;102316.13;;;20.15;73.89
74778;BME280;63298;53.164;8.610;2023-08-20T06:41:14;102303.53;;;20.18;74.08
74778;BME280;63298;53.164;8.610;2023-08-20T06:43:47;102311.22;;;20.27;74.05
74778;BME280;63298;53.164;8.610;2023-08-20T06:46:12;102310.75;;;20.36;74.08
74778;BME280;63298;53.164;8.610;2023-08-20T06:48:37;102306.91;;;20.42;73.65
74778;BME280;63298;53.164;8.610;2023-08-20T06:51:15;102301.34;;;20.47;73.85
74778;BME280;63298;53.164;8.610;2023-08-20T06:53:44;102309.28;;;20.60;73.59
74778;BME280;63298;53.164;8.610;2023-08-20T06:56:10;102311.63;;;20.73;73.43
74778;BME280;63298;53.164;8.610;2023-08-20T06:58:36;102314.78;;;20.82;73.28
74778;BME280;63298;53.164;8.610;2023-08-20T07:01:01;102304.97;;;20.84;73.06
74778;BME280;63298;53.164;8.610;2023-08-20T07:03:27;102317.66;;;20.97;73.08
74778;BME280;63298;53.164;8.610;2023-08-20T07:05:52;102313.22;;;21.01;72.86
74778;BME280;63298;53.164;8.610;2023-08-20T07:08:18;102326.19;;;21.12;72.76
74778;BME280;63298;53.164;8.610;2023-08-20T07:10:43;102326.25;;;21.17;72.98
74778;BME280;63298;53.164;8.610;2023-08-20T07:13:08;102315.88;;;21.18;72.71
74778;BME280;63298;53.164;8.610;2023-08-20T07:15:34;102322.41;;;21.28;72.76
74778;BME280;63298;53.164;8.610;2023-08-20T07:17:59;102327.47;;;21.36;72.62
74778;BME280;63298;53.164;8.610;2023-08-20T07:20:24;102319.38;;;21.40;72.52
74778;BME280;63298;53.164;8.610;2023-08-20T07:22:50;102315.50;;;21.51;72.55
74778;BME280;63298;53.164;8.610;2023-08-20T07:25:15;102316.94;;;21.64;72.54
74778;BME280;63298;53.164;8.610;2023-08-20T07:27:40;102314.75;;;21.71;72.50
74778;BME280;63298;53.164;8.610;2023-08-20T07:30:06;102316.16;;;21.78;72.62
74778;BME280;63298;53.164;8.610;2023-08-20T07:32:32;102319.56;;;21.85;72.57
74778;BME280;63298;53.164;8.610;2023-08-20T07:34:57;102309.50;;;21.94;72.63
74778;BME280;63298;53.164;8.610;2023-08-20T07:37:22;102300.78;;;22.01;72.63
74778;BME280;63298;53.164;8.610;2023-08-20T07:39:47;102315.72;;;22.17;72.14
74778;BME280;63298;53.164;8.610;2023-08-20T07:42:13;102322.19;;;22.27;71.93
74778;BME280;63298;53.164;8.610;2023-08-20T07:44:38;102317.97;;;22.35;71.80
74778;BME280;63298;53.164;8.610;2023-08-20T07:47:03;102317.44;;;22.43;71.54
74778;BME280;63298;53.164;8.610;2023-08-20T07:49:29;102325.88;;;22.48;71.53
74778;BME280;63298;53.164;8.610;2023-08-20T07:51:54;102329.81;;;22.57;71.46
74778;BME280;63298;53.164;8.610;2023-08-20T07:54:19;102327.84;;;22.63;71.25
74778;BME280;63298;53.164;8.610;2023-08-20T07:56:45;102326.16;;;22.67;70.95
74778;BME280;63298;53.164;8.610;2023-08-20T07:59:10;102333.78;;;22.71;70.52
74778;BME280;63298;53.164;8.610;2023-08-20T08:01:35;102336.59;;;22.81;70.36
74778;BME280;63298;53.164;8.610;2023-08-20T08:04:01;102333.50;;;22.88;69.95
74778;BME280;63298;53.164;8.610;2023-08-20T08:06:26;102329.25;;;23.01;69.52
74778;BME280;63298;53.164;8.610;2023-08-20T08:08:51;102326.97;;;23.18;69.18
74778;BME280;63298;53.164;8.610;2023-08-20T08:11:16;102329.16;;;23.36;68.53
74778;BME280;63298;53.164;8.610;2023-08-20T08:13:42;102338.72;;;23.40;68.08
74778;BME280;63298;53.164;8.610;2023-08-20T08:16:07;102341.28;;;23.47;67.83
74778;BME280;63298;53.164;8.610;2023-08-20T08:18:32;102332.25;;;23.45;67.70
74778;BME280;63298;53.164;8.610;2023-08-20T08:20:58;102333.34;;;23.54;67.58
74778;BME280;63298;53.164;8.610;2023-08-20T08:23:23;102334.75;;;23.56;66.94
74778;BME280;63298;53.164;8.610;2023-08-20T08:25:48;102333.03;;;23.60;66.40
74778;BME280;63298;53.164;8.610;2023-08-20T08:28:14;102338.09;;;23.63;66.88
74778;BME280;63298;53.164;8.610;2023-08-20T08:30:39;102336.97;;;23.64;66.62
74778;BME280;63298;53.164;8.610;2023-08-20T08:33:04;102342.03;;;23.73;66.13
74778;BME280;63298;53.164;8.610;2023-08-20T08:35:30;102334.13;;;23.70;66.12
74778;BME280;63298;53.164;8.610;2023-08-20T08:37:55;102333.25;;;23.74;66.29
74778;BME280;63298;53.164;8.610;2023-08-20T08:40:21;102331.88;;;23.72;65.84
74778;BME280;63298;53.164;8.610;2023-08-20T08:42:49;102328.72;;;23.78;66.33
74778;BME280;63298;53.164;8.610;2023-08-20T08:45:17;102350.03;;;24.04;66.21
74778;BME280;63298;53.164;8.610;2023-08-20T08:47:43;102333.88;;;24.20;65.37
74778;BME280;63298;53.164;8.610;2023-08-20T08:50:09;102351.59;;;24.31;65.05
74778;BME280;63298;53.164;8.610;2023-08-20T08:52:36;102336.63;;;24.30;65.03
74778;BME280;63298;53.164;8.610;2023-08-20T08:55:03;102343.03;;;24.46;64.91
74778;BME280;63298;53.164;8.610;2023-08-20T08:57:30;102345.50;;;24.52;64.73
74778;BME280;63298;53.164;8.610;2023-08-20T08:59:56;102349.19;;;24.48;64.56
74778;BME280;63298;53.164;8.610;2023-08-20T09:02:21;102345.25;;;24.49;64.31
74778;BME280;63298;53.164;8.610;2023-08-20T09:04:46;102353.34;;;24.61;64.42
74778;BME280;63298;53.164;8.610;2023-08-20T09:07:13;102348.94;;;24.78;64.21
74778;BME280;63298;53.164;8.610;2023-08-20T09:09:43;102346.91;;;24.84;63.49
74778;BME280;63298;53.164;8.610;2023-08-20T09:12:20;102356.56;;;24.78;63.69
74778;BME280;63298;53.164;8.610;2023-08-20T09:14:50;102341.31;;;24.79;63.95
74778;BME280;63298;53.164;8.610;2023-08-20T09:17:16;102345.38;;;25.02;63.38
74778;BME280;63298;53.164;8.610;2023-08-20T09:19:43;102336.25;;;25.10;63.52
74778;BME280;63298;53.164;8.610;2023-08-20T09:22:08;102347.69;;;25.23;63.02
74778;BME280;63298;53.164;8.610;2023-08-20T09:24:38;102340.78;;;25.34;63.30
74778;BME280;63298;53.164;8.610;2023-08-20T09:27:04;102331.53;;;25.53;63.11
74778;BME280;63298;53.164;8.610;2023-08-20T09:29:32;102330.06;;;25.60;62.30
74778;BME280;63298;53.164;8.610;2023-08-20T09:32:01;102331.50;;;25.58;61.77
74778;BME280;63298;53.164;8.610;2023-08-20T09:34:36;102332.63;;;25.57;61.84
74778;BME280;63298;53.164;8.610;2023-08-20T09:37:01;102325.72;;;25.68;62.06
74778;BME280;63298;53.164;8.610;2023-08-20T09:39:26;102334.13;;;25.73;62.04
74778;BME280;63298;53.164;8.610;2023-08-20T09:41:52;102332.38;;;25.77;61.37
74778;BME280;63298;53.164;8.610;2023-08-20T09:44:18;102331.16;;;25.83;61.44
74778;BME280;63298;53.164;8.610;2023-08-20T09:46:45;102331.88;;;25.94;61.28
74778;BME280;63298;53.164;8.610;2023-08-20T09:49:12;102329.09;;;25.89;61.58
74778;BME280;63298;53.164;8.610;2023-08-20T09:51:42;102334.56;;;26.04;61.12
74778;BME280;63298;53.164;8.610;2023-08-20T09:54:21;102341.44;;;26.16;60.53
74778;BME280;63298;53.164;8.610;2023-08-20T09:56:54;102335.13;;;26.25;60.42
74778;BME280;63298;53.164;8.610;2023-08-20T09:59:24;102336.84;;;26.20;60.33
74778;BME280;63298;53.164;8.610;2023-08-20T10:01:50;102335.00;;;25.92;60.75
74778;BME280;63298;53.164;8.610;2023-08-20T10:04:16;102326.50;;;25.73;61.04
74778;BME280;63298;53.164;8.610;2023-08-20T10:06:42;102335.13;;;25.82;61.13
74778;BME280;63298;53.164;8.610;2023-08-20T10:09:08;102330.94;;;25.98;60.72
74778;BME280;63298;53.164;8.610;2023-08-20T10:11:34;102335.31;;;26.09;60.59
74778;BME280;63298;53.164;8.610;2023-08-20T10:13:59;102333.38;;;26.29;60.16
74778;BME280;63298;53.164;8.610;2023-08-20T10:16:27;102334.94;;;26.35;59.06
74778;BME280;63298;53.164;8.610;2023-08-20T10:18:52;102337.53;;;26.50;59.63
74778;BME280;63298;53.164;8.610;2023-08-20T10:21:23;102331.34;;;26.48;59.62
74778;BME280;63298;53.164;8.610;2023-08-20T10:23:49;102338.09;;;26.52;59.21
74778;BME280;63298;53.164;8.610;2023-08-20T10:26:14;102336.00;;;26.57;59.31
74778;BME280;63298;53.164;8.610;2023-08-20T10:28:40;102334.03;;;26.58;58.82
74778;BME280;63298;53.164;8.610;2023-08-20T10:31:12;102331.16;;;26.44;57.55
74778;BME280;63298;53.164;8.610;2023-08-20T10:33:48;102332.03;;;26.40;59.27
74778;BME280;63298;53.164;8.610;2023-08-20T10:36:18;102323.53;;;26.40;59.16
74778;BME280;63298;53.164;8.610;2023-08-20T10:38:46;102336.47;;;26.46;59.09
74778;BME280;63298;53.164;8.610;2023-08-20T10:41:12;102336.59;;;26.54;59.30
74778;BME280;63298;53.164;8.610;2023-08-20T10:43:39;102320.84;;;26.67;59.22
74778;BME280;63298;53.164;8.610;2023-08-20T10:46:14;102328.78;;;26.84;57.67
74778;BME280;63298;53.164;8.610;2023-08-20T10:48:40;102323.84;;;26.89;58.49
74778;BME280;63298;53.164;8.610;2023-08-20T10:51:16;102325.25;;;26.92;58.07
74778;BME280;63298;53.164;8.610;2023-08-20T10:53:48;102327.13;;;26.96;58.48
74778;BME280;63298;53.164;8.610;2023-08-20T10:56:15;102329.66;;;26.98;58.25
74778;BME280;63298;53.164;8.610;2023-08-20T10:58:42;102329.97;;;26.96;58.46
74778;BME280;63298;53.164;8.610;2023-08-20T11:01:21;102322.84;;;26.80;57.47
74778;BME280;63298;53.164;8.610;2023-08-20T11:03:48;102320.22;;;26.70;58.56
74778;BME280;63298;53.164;8.610;2023-08-20T11:06:14;102320.28;;;26.65;58.59
74778;BME280;63298;53.164;8.610;2023-08-20T11:08:39;102321.59;;;26.73;58.29
74778;BME280;63298;53.164;8.610;2023-08-20T11:11:07;102323.75;;;26.94;58.45
74778;BME280;63298;53.164;8.610;2023-08-20T11:13:33;102335.34;;;26.98;57.85
74778;BME280;63298;53.164;8.610;2023-08-20T11:15:59;102336.88;;;26.90;58.21
74778;BME280;63298;53.164;8.610;2023-08-20T11:18:25;102333.53;;;26.88;58.07
74778;BME280;63298;53.164;8.610;2023-08-20T11:20:51;102328.38;;;26.90;58.07
74778;BME280;63298;53.164;8.610;2023-08-20T11:23:16;102331.53;;;26.89;58.34
74778;BME280;63298;53.164;8.610;2023-08-20T11:25:42;102326.03;;;26.79;57.84
74778;BME280;63298;53.164;8.610;2023-08-20T11:28:08;102338.16;;;26.79;58.06
74778;BME280;63298;53.164;8.610;2023-08-20T11:30:33;102322.78;;;26.85;57.99
74778;BME280;63298;53.164;8.610;2023-08-20T11:32:59;102337.09;;;26.94;57.89
74778;BME280;63298;53.164;8.610;2023-08-20T11:35:25;102335.63;;;26.96;57.70
74778;BME280;63298;53.164;8.610;2023-08-20T11:37:52;102324.31;;;26.96;57.52
74778;BME280;63298;53.164;8.610;2023-08-20T11:40:20;102328.19;;;27.14;57.49
74778;BME280;63298;53.164;8.610;2023-08-20T11:42:46;102329.69;;;27.39;56.90
74778;BME280;63298;53.164;8.610;2023-08-20T11:45:11;102317.97;;;27.59;56.37
74778;BME280;63298;53.164;8.610;2023-08-20T11:47:40;102323.66;;;27.59;55.68
74778;BME280;63298;53.164;8.610;2023-08-20T11:50:06;102316.19;;;27.49;55.54
74778;BME280;63298;53.164;8.610;2023-08-20T11:52:33;102319.66;;;27.60;55.79
74778;BME280;63298;53.164;8.610;2023-08-20T11:54:59;102321.03;;;27.63;55.65
74778;BME280;63298;53.164;8.610;2023-08-20T11:57:25;102327.19;;;27.78;55.72
74778;BME280;63298;53.164;8.610;2023-08-20T11:59:50;102319.00;;;27.90;54.75
74778;BME280;63298;53.164;8.610;2023-08-20T12:02:25;102314.53;;;27.98;53.93
74778;BME280;63298;53.164;8.610;2023-08-20T12:04:50;102318.97;;;28.04;54.26
74778;BME280;63298;53.164;8.610;2023-08-20T12:07:15;102313.06;;;28.14;53.44
74778;BME280;63298;53.164;8.610;2023-08-20T12:09:41;102323.66;;;28.22;53.57
74778;BME280;63298;53.164;8.610;2023-08-20T12:12:07;102304.38;;;28.33;53.73
74778;BME280;63298;53.164;8.610;2023-08-20T12:14:34;102303.03;;;28.53;53.29
74778;BME280;63298;53.164;8.610;2023-08-20T12:16:59;102308.44;;;28.63;53.05
74778;BME280;63298;53.164;8.610;2023-08-20T12:19:24;102305.56;;;28.76;52.66
74778;BME280;63298;53.164;8.610;2023-08-20T12:21:50;102305.81;;;28.89;52.38
74778;BME280;63298;53.164;8.610;2023-08-20T12:24:16;102311.63;;;28.84;52.28
74778;BME280;63298;53.164;8.610;2023-08-20T12:26:41;102311.81;;;28.65;52.04
74778;BME280;63298;53.164;8.610;2023-08-20T12:29:07;102301.94;;;28.62;52.29
74778;BME280;63298;53.164;8.610;2023-08-20T12:31:33;102312.22;;;28.72;52.38
74778;BME280;63298;53.164;8.610;2023-08-20T12:33:59;102300.19;;;28.53;52.00
74778;BME280;63298;53.164;8.610;2023-08-20T12:36:25;102289.84;;;28.57;51.56
74778;BME280;63298;53.164;8.610;2023-08-20T12:38:50;102298.47;;;28.65;51.39
74778;BME280;63298;53.164;8.610;2023-08-20T12:41:16;102295.28;;;28.67;51.58
74778;BME280;63298;53.164;8.610;2023-08-20T12:43:41;102290.84;;;28.74;51.71
74778;BME280;63298;53.164;8.610;2023-08-20T12:46:09;102290.53;;;28.76;51.54
74778;BME280;63298;53.164;8.610;2023-08-20T12:48:35;102281.28;;;28.70;51.09
74778;BME280;63298;53.164;8.610;2023-08-20T12:51:00;102295.22;;;28.58;51.67
74778;BME280;63298;53.164;8.610;2023-08-20T12:53:26;102290.81;;;28.52;51.51